Latest Weather Observations for St George

IDQ60801

Issued at 7:32 pm EST Wednesday 27 May 2015 (issued every 30 minutes, with the page automatically refreshed every 10 minutes)

About weather observations | Map of weather stations | Latest weather observations for QLD | Other Formats
Station Details ID: 043109 Name: ST GEORGE AIRPORT Lat: -28.05 Lon: 148.59 Height: 198.5 m
Data from the previous 72 hours. | See also: Recent months at St George
Date/Time
EST
Temp
°C
App
Temp
°C
Dew
Point
Rel
Hum
%
Delta-T
°C
Wind Press
QNH
hPa
Press
MSL
hPa
Rain
since 9 am
mm
Dir
 
Spd
km/h
Gust
km/h
Spd
kts
Gust
kts
27/07:30pm 14.8 12.9 7.4 61 3.7 SE 7 9 4 5 1023.0 - 0.0
27/07:00pm 16.5 14.3 7.7 56 4.4 ESE 9 11 5 6 1022.5 - 0.0
27/06:30pm 16.8 14.4 7.2 53 4.8 SE 9 11 5 6 1022.5 - 0.0
27/06:00pm 18.2 15.7 6.7 47 5.8 ESE 9 9 5 5 1022.2 1021.9 0.0
27/05:30pm 19.0 16.4 6.1 43 6.4 SE 9 11 5 6 1022.0 - 0.0
27/05:00pm 21.1 18.9 6.2 38 7.6 E 7 11 4 6 1021.8 - 0.0
27/04:30pm 21.9 19.1 5.3 34 8.3 E 9 13 5 7 1021.5 - 0.0
27/04:00pm 22.5 19.8 5.4 33 8.6 E 9 13 5 7 1021.5 - 0.0
27/03:30pm 22.4 19.2 4.9 32 8.7 E 11 15 6 8 1021.5 - 0.0
27/03:00pm 22.6 20.0 6.0 34 8.4 E 9 13 5 7 1021.7 1021.3 0.0
27/02:30pm 22.5 19.8 5.4 33 8.6 ESE 9 17 5 9 1021.9 - 0.0
27/02:00pm 22.4 19.7 5.8 34 8.4 E 9 15 5 8 1021.9 - 0.0
27/01:30pm 21.9 19.3 6.2 36 8.0 E 9 19 5 10 1022.3 - 0.0
27/01:00pm 22.3 20.2 5.7 34 8.4 NE 6 7 3 4 1022.7 - 0.0
27/12:30pm 21.9 19.1 7.0 38 7.7 SE 11 17 6 9 1023.2 - 0.0
27/12:00pm 21.7 19.7 8.6 43 7.0 E 9 15 5 8 1023.8 1023.5 0.0
27/11:30am 20.9 18.4 8.2 44 6.7 E 11 17 6 9 1024.5 - 0.0
27/11:00am 20.8 18.9 9.1 47 6.3 NE 9 15 5 8 1024.9 - 0.0
27/10:30am 19.9 18.2 9.8 52 5.4 ENE 9 15 5 8 1025.2 - 0.0
27/10:00am 18.2 16.6 10.3 60 4.3 NE 9 13 5 7 1025.6 - 0.0
27/09:30am 17.7 16.6 10.6 63 3.8 NE 7 11 4 6 1025.8 - 0.0
27/09:00am 15.2 13.5 9.8 70 2.8 NNE 9 13 5 7 1025.6 1025.3 0.0
27/08:30am 13.8 12.1 10.0 78 2.0 NNE 9 13 5 7 1025.2 - 0.0
27/08:00am 12.1 11.8 10.0 87 1.1 N 2 7 1 4 1025.1 - 0.0
27/07:30am 8.2 7.5 6.8 91 0.7 CALM 0 0 0 0 1025.2 - 0.0
27/07:00am 7.2 6.2 5.7 90 0.7 CALM 0 0 0 0 1024.5 - 0.0
27/06:30am 7.7 6.9 6.3 91 0.6 CALM 0 0 0 0 1024.0 - 0.0
27/06:00am 8.5 7.8 7.1 91 0.7 CALM 0 0 0 0 1023.9 1023.6 0.0
27/05:30am 8.8 6.9 7.6 92 0.6 N 7 9 4 5 1023.6 - 0.0
27/05:00am 8.3 6.4 6.9 91 0.7 N 6 6 3 3 1023.8 - 0.0
27/04:30am 8.2 7.5 6.8 91 0.7 CALM 0 0 0 0 1023.5 - 0.0
27/04:00am 8.1 7.3 6.6 90 0.7 CALM 0 0 0 0 1023.8 - 0.0
27/03:30am 8.5 7.8 7.1 91 0.7 CALM 0 0 0 0 1023.8 - 0.0
27/03:00am 8.9 8.3 7.5 91 0.7 CALM 0 0 0 0 1023.9 1023.6 0.0
27/02:30am 8.7 8.0 7.0 89 0.8 CALM 0 0 0 0 1024.0 - 0.0
27/02:00am 9.4 8.9 7.8 90 0.8 CALM 0 0 0 0 1023.9 - 0.0
27/01:30am 9.7 9.2 8.0 89 0.8 CALM 0 0 0 0 1024.2 - 0.0
27/01:00am 9.8 9.4 8.1 89 0.8 CALM 0 4 0 2 1024.3 - 0.0
27/12:30am 10.3 10.0 8.6 89 0.8 CALM 0 0 0 0 1024.8 - 0.0
27/12:00am 10.5 9.4 8.3 86 1.1 NE 4 6 2 3 1025.0 1024.7 0.0
 
Date/Time
EST
Temp
°C
App
Temp
°C
Dew
Point
Rel
Hum
%
Delta-T
°C
Wind Press
QNH
hPa
Press
MSL
hPa
Rain
since 9 am
mm
Dir
 
Spd
km/h
Gust
km/h
Spd
kts
Gust
kts
26/11:30pm 11.1 10.4 8.7 85 1.2 E 2 6 1 3 1025.1 - 0.0
26/11:00pm 11.8 10.5 9.2 84 1.3 E 6 7 3 4 1025.0 - 0.0
26/10:30pm 12.2 12.0 9.2 82 1.5 CALM 0 0 0 0 1025.3 - 0.0
26/10:00pm 12.9 11.9 9.0 77 2.0 E 4 6 2 3 1025.2 - 0.0
26/09:30pm 14.4 13.3 9.8 74 2.4 E 6 7 3 4 1025.3 - 0.0
26/09:00pm 15.4 14.2 10.2 71 2.7 E 7 11 4 6 1025.4 1025.1 0.0
26/08:30pm 16.2 14.6 10.3 68 3.1 E 9 13 5 7 1025.3 - 0.0
26/08:00pm 16.4 14.8 10.3 67 3.3 E 9 11 5 6 1025.3 - 0.0
26/07:30pm 16.5 15.0 10.4 67 3.3 E 9 13 5 7 1025.2 - 0.0
26/07:00pm 17.0 15.5 10.4 65 3.5 E 9 13 5 7 1025.1 - 0.0
26/06:30pm 15.9 15.0 10.7 71 2.8 ENE 6 7 3 4 1024.9 - 0.0
26/06:00pm 16.7 15.6 10.8 68 3.2 E 7 9 4 5 1024.6 1024.3 0.0
26/05:30pm 18.2 17.5 11.3 64 3.8 E 6 9 3 5 1024.6 - 0.0
26/05:00pm 19.8 20.1 11.0 57 4.9 CALM 0 0 0 0 1024.6 - 0.0
26/04:30pm 20.9 20.8 9.5 48 6.1 CALM 0 0 0 0 1024.5 - 0.0
26/04:00pm 21.3 19.8 8.6 44 6.8 ENE 6 7 3 4 1024.3 - 0.0
26/03:30pm 22.1 21.3 9.6 45 6.8 ENE 4 9 2 5 1024.5 - 0.0
26/03:00pm 21.4 20.0 8.7 44 6.7 NNE 6 9 3 5 1024.7 1024.4 0.0
26/02:30pm 21.8 19.9 9.0 44 6.9 NNE 9 15 5 8 1024.5 - 0.0
26/02:00pm 21.5 18.8 9.1 45 6.7 N 13 19 7 10 1025.0 - 0.0
26/01:30pm 21.6 19.4 9.5 46 6.6 N 11 15 6 8 1025.2 - 0.0
26/01:00pm 21.8 19.5 10.3 48 6.3 NNE 13 20 7 11 1025.4 - 0.0
26/12:30pm 21.1 18.0 10.3 50 5.9 N 17 24 9 13 1026.0 - 0.0
26/12:00pm 20.8 18.5 11.7 56 5.1 NNE 15 20 8 11 1026.4 1026.2 0.0
26/11:30am 19.6 17.1 10.9 57 4.8 N 15 19 8 10 1027.2 - 0.0
26/11:00am 19.2 17.4 10.7 58 4.6 N 11 19 6 10 1028.0 - 0.0
26/10:30am 18.9 16.4 11.0 60 4.3 N 15 20 8 11 1027.9 - 0.0
26/10:00am 19.1 15.7 10.6 58 4.6 N 19 24 10 13 1028.4 - 0.0
26/09:30am 17.7 15.6 11.0 65 3.7 N 13 17 7 9 1028.6 - 0.0
26/09:00am 16.2 14.4 10.9 71 2.8 N 11 17 6 9 1029.1 1028.8 0.0
26/08:30am 14.5 13.0 10.7 78 2.0 NNE 9 11 5 6 1028.5 - 0.0
26/08:00am 12.8 11.7 10.0 83 1.5 NNE 6 7 3 4 1028.4 - 0.0
26/07:30am 11.5 10.2 9.2 86 1.2 NE 6 7 3 4 1028.0 - 0.0
26/07:00am 10.8 8.9 8.9 88 1.0 ENE 9 11 5 6 1027.2 - 0.0
26/06:30am 9.9 8.3 8.2 89 0.8 ENE 6 9 3 5 1027.5 - 0.0
26/06:00am 10.0 8.4 8.1 88 0.9 E 6 7 3 4 1027.5 1027.2 0.0
26/05:30am 10.4 8.8 8.0 85 1.2 E 6 6 3 3 1027.1 - 0.0
26/05:00am 10.7 9.4 7.8 82 1.4 E 4 6 2 3 1027.2 - 0.0
26/04:30am 12.0 10.6 8.7 80 1.7 E 6 9 3 5 1027.0 - 0.0
26/04:00am 12.2 10.8 8.7 79 1.8 ENE 6 9 3 5 1027.1 - 0.0
26/03:30am 12.3 10.7 8.6 78 1.9 E 7 9 4 5 1027.1 - 0.0
26/03:00am 12.5 10.9 8.6 77 1.9 E 7 9 4 5 1027.5 1027.2 0.0
26/02:30am 12.4 10.9 8.5 77 2.0 ESE 6 7 3 4 1027.9 - 0.0
26/02:00am 12.1 10.5 8.8 80 1.7 ESE 7 9 4 5 1027.8 - 0.0
26/01:30am 12.0 10.4 8.1 77 1.9 E 6 7 3 4 1027.9 - 0.0
26/01:00am 12.3 10.7 8.0 75 2.1 E 6 7 3 4 1028.0 - 0.0
26/12:30am 12.6 11.1 8.3 75 2.2 E 6 7 3 4 1028.1 - 0.0
26/12:00am 12.4 10.6 7.9 74 2.2 ESE 7 9 4 5 1027.9 1027.6 0.0
 
Date/Time
EST
Temp
°C
App
Temp
°C
Dew
Point
Rel
Hum
%
Delta-T
°C
Wind Press
QNH
hPa
Press
MSL
hPa
Rain
since 9 am
mm
Dir
 
Spd
km/h
Gust
km/h
Spd
kts
Gust
kts
25/11:30pm 12.8 11.0 8.1 73 2.3 E 7 9 4 5 1027.8 - 0.0
25/11:00pm 13.6 11.8 8.0 69 2.8 ESE 7 7 4 4 1028.1 - 0.0
25/10:30pm 14.1 12.3 8.1 67 3.0 E 7 9 4 5 1028.2 - 0.0
25/10:00pm 14.6 12.5 8.1 65 3.3 ESE 9 9 5 5 1028.1 - 0.0
25/09:30pm 15.0 12.9 8.3 64 3.4 E 9 13 5 7 1028.1 - 0.0
25/09:00pm 15.0 13.2 8.0 63 3.5 ESE 7 9 4 5 1028.3 1028.0 0.0
25/08:30pm 15.4 13.3 8.2 62 3.7 ESE 9 11 5 6 1028.4 - 0.0
25/08:00pm 15.9 14.2 8.2 60 3.9 ESE 7 9 4 5 1028.6 - 0.0
25/07:30pm 16.8 14.3 8.2 57 4.4 SE 11 15 6 8 1028.4 - 0.0
25/07:00pm 16.6 14.2 8.8 60 4.0 SE 11 13 6 7 1028.3 - 0.0
25/06:30pm 17.0 15.3 8.4 57 4.4 SE 7 7 4 4 1028.2 - 0.0
25/06:00pm 18.1 16.4 8.4 53 5.0 ESE 7 9 4 5 1027.8 1027.5 0.0
25/05:30pm 19.3 17.2 8.3 49 5.7 ESE 9 9 5 5 1027.4 - 0.0
25/05:00pm 20.1 17.6 8.4 47 6.2 ESE 11 13 6 7 1027.0 - 0.0
25/04:30pm 21.2 18.2 7.8 42 7.0 ESE 13 19 7 10 1026.6 - 0.0
25/04:00pm 22.1 19.1 7.5 39 7.6 SE 13 19 7 10 1026.8 - 0.0
25/03:30pm 22.1 19.0 7.1 38 7.8 ESE 13 19 7 10 1026.7 - 0.0
25/03:00pm 22.8 20.2 6.1 34 8.5 NE 9 15 5 8 1027.1 1026.8 0.0
25/02:30pm 22.5 20.1 7.1 37 8.0 ESE 9 15 5 8 1027.3 - 0.0
25/02:00pm 22.5 20.0 6.7 36 8.2 N 9 15 5 8 1027.5 - 0.0
25/01:30pm 22.1 18.9 6.7 37 7.9 N 13 20 7 11 1027.7 - 0.0
25/01:00pm 22.2 19.4 6.8 37 8.0 NNE 11 19 6 10 1028.0 - 0.0
25/12:30pm 21.2 16.8 6.7 39 7.4 NNE 19 22 10 12 1028.2 - 0.0
25/12:00pm 21.3 17.6 7.9 42 7.0 ENE 17 24 9 13 1028.8 1028.5 0.0
25/11:30am 20.9 18.1 8.5 45 6.6 NE 13 17 7 9 1029.5 - 0.0
25/11:00am 19.6 17.0 9.5 52 5.4 NE 13 19 7 10 1030.2 - 0.0
25/10:30am 19.2 15.9 9.4 53 5.2 NE 17 24 9 13 1030.9 - 0.0
25/10:00am 18.2 14.8 9.3 56 4.7 NE 17 24 9 13 1031.2 - 0.0
25/09:30am 16.9 13.9 9.1 60 4.1 NE 15 20 8 11 1031.3 - 0.0
25/09:00am 15.2 13.5 9.8 70 2.8 NE 9 15 5 8 1031.3 1031.1 0.0
25/08:30am 13.7 12.2 9.2 74 2.3 NE 7 11 4 6 1031.1 - 0.0
25/08:00am 11.6 10.1 8.5 81 1.5 E 6 9 3 5 1030.9 - 0.0
25/07:30am 8.1 6.2 6.9 92 0.6 E 6 6 3 3 1030.6 - 0.0
25/07:00am 7.1 5.7 5.6 90 0.7 NE 2 7 1 4 1030.2 - 0.0
25/06:30am 6.9 5.7 4.7 86 1.0 CALM 0 0 0 0 1030.3 - 0.0
25/06:00am 7.9 5.7 5.5 85 1.1 NNE 6 7 3 4 1029.6 1029.3 0.0
25/05:30am 8.2 7.2 5.5 83 1.2 CALM 0 4 0 2 1029.1 - 0.0
25/05:00am 10.3 8.3 7.0 80 1.6 ENE 7 11 4 6 1028.7 - 0.0
25/04:30am 9.4 7.3 6.7 83 1.3 ENE 7 11 4 6 1028.3 - 0.0
25/04:00am 9.3 7.0 5.9 79 1.6 E 7 9 4 5 1028.5 - 0.0
25/03:30am 10.4 8.3 6.7 78 1.8 E 7 9 4 5 1028.5 - 0.0
25/03:00am 10.3 8.2 6.5 77 1.8 E 7 9 4 5 1028.7 1028.4 0.0
25/02:30am 10.6 7.7 6.4 75 2.0 E 11 15 6 8 1028.8 - 0.0
25/02:00am 10.1 7.6 6.4 78 1.7 E 9 11 5 6 1029.0 - 0.0
25/01:30am 9.7 7.6 6.8 82 1.4 ESE 7 9 4 5 1029.1 - 0.0
25/01:00am 9.2 6.8 6.8 85 1.1 E 9 11 5 6 1029.3 - 0.0
25/12:30am 9.0 7.4 6.3 83 1.3 E 4 6 2 3 1029.3 - 0.0
25/12:00am 9.7 7.6 6.6 81 1.5 E 7 9 4 5 1029.4 1029.1 0.0
 
Date/Time
EST
Temp
°C
App
Temp
°C
Dew
Point
Rel
Hum
%
Delta-T
°C
Wind Press
QNH
hPa
Press
MSL
hPa
Rain
since 9 am
mm
Dir
 
Spd
km/h
Gust
km/h
Spd
kts
Gust
kts
24/11:30pm 9.9 7.9 6.1 77 1.8 E 6 7 3 4 1029.5 - 0.0
24/11:00pm 11.5 9.5 7.0 74 2.2 ESE 7 9 4 5 1029.4 - 0.0
24/10:30pm 11.7 9.6 6.6 71 2.4 ESE 7 9 4 5 1029.4 - 0.0
24/10:00pm 12.5 10.4 6.5 67 2.9 ESE 7 9 4 5 1029.2 - 0.0
24/09:30pm 13.5 10.7 6.8 64 3.3 ESE 11 13 6 7 1029.1 - 0.0
24/09:00pm 13.9 11.4 6.7 62 3.5 ESE 9 13 5 7 1029.0 1028.7 0.0
24/08:30pm 14.0 11.6 6.8 62 3.5 ESE 9 11 5 6 1029.0 - 0.0
24/08:00pm 14.2 11.8 6.8 61 3.6 ESE 9 11 5 6 1028.9 - 0.0

Other Formats:

Comma delimited format used in spreadsheet applications
http://www.bom.gov.au/fwo/IDQ60801/IDQ60801.94517.axf

JavaScript Object Notation format (JSON) in row-major order
http://www.bom.gov.au/fwo/IDQ60801/IDQ60801.94517.json